Time;durP1;ratioP1;P1;durP2;ratioP2;P2;SDS_P1;SDS_P2;PMS_P1;PMS_P2;Temp;Humidity;BMP_temperature;BMP_pressure;BME280_temperature;BME280_humidity;BME280_pressure;Samples;Min_cycle;Max_cycle;Signal;HPM_P1;HPM_P2
2023/08/06 00:01:32;;;;;;;;;;;21.80;54.10;;;;;;1574888;74;789;-68
2023/08/06 00:03:34;;;;;;;;;;;21.90;54.20;;;;;;1574068;74;673;-68
2023/08/06 00:05:36;;;;;;;;;;;21.90;54.20;;;;;;1563980;74;1144;-68
2023/08/06 00:07:38;;;;;;;;;;;21.90;54.40;;;;;;1563847;74;800;-66
2023/08/06 00:09:40;;;;;;;;;;;21.90;54.40;;;;;;1571642;74;715;-68
2023/08/06 00:11:43;;;;;;;;;;;21.90;54.30;;;;;;1571035;74;1938;-67
2023/08/06 00:13:45;;;;;;;;;;;21.90;54.40;;;;;;1559514;74;789;-68
2023/08/06 00:15:47;;;;;;;;;;;21.90;54.30;;;;;;1581836;73;1172;-68
2023/08/06 00:17:49;;;;;;;;;;;21.90;54.30;;;;;;1565769;74;682;-66
2023/08/06 00:19:51;;;;;;;;;;;21.90;54.30;;;;;;1565780;74;712;-68
2023/08/06 00:21:53;;;;;;;;;;;21.80;54.30;;;;;;1561367;74;795;-68
2023/08/06 00:23:54;;;;;;;;;;;21.90;54.40;;;;;;1577749;73;771;-68
2023/08/06 00:25:56;;;;;;;;;;;21.80;54.40;;;;;;1548857;75;1133;-68
2023/08/06 00:27:58;;;;;;;;;;;21.80;54.40;;;;;;1562802;75;655;-68
2023/08/06 00:30:00;;;;;;;;;;;21.90;54.50;;;;;;1552698;74;776;-68
2023/08/06 00:32:02;;;;;;;;;;;21.90;54.40;;;;;;1568195;74;1943;-68
2023/08/06 00:34:04;;;;;;;;;;;21.80;54.40;;;;;;1559415;74;759;-67
2023/08/06 00:36:06;;;;;;;;;;;21.80;54.30;;;;;;1565310;74;1110;-67
2023/08/06 00:38:08;;;;;;;;;;;21.90;54.40;;;;;;1573619;74;744;-68
2023/08/06 00:40:09;;;;;;;;;;;21.80;54.30;;;;;;1564137;74;803;-66
2023/08/06 00:42:11;;;;;;;;;;;21.80;54.30;;;;;;1568098;74;643;-68
2023/08/06 00:44:13;;;;;;;;;;;21.80;54.40;;;;;;1564646;74;1447;-68
2023/08/06 00:46:15;;;;;;;;;;;21.80;54.40;;;;;;1560675;74;1130;-68
2023/08/06 00:48:17;;;;;;;;;;;21.80;54.40;;;;;;1551040;74;629;-68
2023/08/06 00:50:21;;;;;;;;;;;21.80;54.30;;;;;;1560286;75;1927;-68
2023/08/06 00:52:22;;;;;;;;;;;21.80;54.30;;;;;;1548919;75;779;-68
2023/08/06 00:54:24;;;;;;;;;;;21.80;54.40;;;;;;1574153;75;1171;-69
2023/08/06 00:56:26;;;;;;;;;;;21.80;54.30;;;;;;1563138;75;603;-69
2023/08/06 00:58:28;;;;;;;;;;;21.80;54.40;;;;;;1550588;75;809;-70
2023/08/06 01:00:30;;;;;;;;;;;21.80;54.30;;;;;;1547689;74;747;-68
2023/08/06 01:02:32;;;;;;;;;;;21.80;54.20;;;;;;1555627;75;730;-68
2023/08/06 01:04:34;;;;;;;;;;;21.70;54.20;;;;;;1553209;75;1131;-68
2023/08/06 01:06:37;;;;;;;;;;;21.70;54.30;;;;;;1554531;75;742;-68
2023/08/06 01:08:59;;;;;;;;;;;21.70;54.20;;;;;;1560600;74;1901;-68
2023/08/06 01:11:15;;;;;;;;;;;21.80;54.10;;;;;;1563718;74;1935;-69
2023/08/06 01:13:18;;;;;;;;;;;21.80;54.20;;;;;;1559952;74;2063;-69
2023/08/06 01:15:22;;;;;;;;;;;21.80;54.20;;;;;;1557633;74;1180;-69
2023/08/06 01:17:26;;;;;;;;;;;21.80;54.10;;;;;;1556787;74;1614;-69
2023/08/06 01:19:28;;;;;;;;;;;21.70;54.10;;;;;;1566360;74;1990;-70
2023/08/06 01:21:29;;;;;;;;;;;21.70;54.10;;;;;;1573339;74;740;-69
2023/08/06 01:23:32;;;;;;;;;;;21.80;54.00;;;;;;1565479;74;733;-69
2023/08/06 01:25:34;;;;;;;;;;;21.80;54.00;;;;;;1574916;74;1155;-69
2023/08/06 01:27:41;;;;;;;;;;;21.70;54.00;;;;;;1567008;74;768;-69
2023/08/06 01:29:45;;;;;;;;;;;21.70;54.00;;;;;;1576380;74;786;-68
2023/08/06 01:31:48;;;;;;;;;;;21.80;54.00;;;;;;1567312;74;1911;-68
2023/08/06 01:33:50;;;;;;;;;;;21.70;53.80;;;;;;1568499;74;815;-69
2023/08/06 01:35:51;;;;;;;;;;;21.70;53.90;;;;;;1568649;74;1193;-69
2023/08/06 01:37:56;;;;;;;;;;;21.70;53.90;;;;;;1572351;74;781;-69
2023/08/06 01:39:57;;;;;;;;;;;21.70;54.00;;;;;;1569093;74;1618;-69
2023/08/06 01:41:59;;;;;;;;;;;21.70;53.90;;;;;;1568796;74;736;-69
2023/08/06 01:44:01;;;;;;;;;;;21.70;53.90;;;;;;1579352;74;1480;-69
2023/08/06 01:46:02;;;;;;;;;;;21.60;53.80;;;;;;1566065;74;1119;-69
2023/08/06 01:48:04;;;;;;;;;;;21.60;53.80;;;;;;1562189;74;553;-68
2023/08/06 01:50:06;;;;;;;;;;;21.60;53.80;;;;;;1567926;74;753;-69
2023/08/06 01:52:08;;;;;;;;;;;21.60;53.80;;;;;;1569520;74;1947;-68
2023/08/06 01:54:10;;;;;;;;;;;21.60;53.80;;;;;;1571114;74;776;-69
2023/08/06 01:56:12;;;;;;;;;;;21.60;53.80;;;;;;1582440;74;1080;-67
2023/08/06 01:58:14;;;;;;;;;;;21.60;53.70;;;;;;1581211;74;832;-69
2023/08/06 02:00:16;;;;;;;;;;;21.70;53.70;;;;;;1570523;74;659;-68
2023/08/06 02:02:17;;;;;;;;;;;21.70;53.80;;;;;;1565409;74;724;-69
2023/08/06 02:04:19;;;;;;;;;;;21.60;53.60;;;;;;1580273;74;779;-68
2023/08/06 02:06:21;;;;;;;;;;;21.70;53.60;;;;;;1571389;74;1139;-68
2023/08/06 02:08:23;;;;;;;;;;;21.70;53.60;;;;;;1566441;74;727;-68
2023/08/06 02:10:25;;;;;;;;;;;21.60;53.50;;;;;;1572077;74;803;-69
2023/08/06 02:12:27;;;;;;;;;;;21.60;53.60;;;;;;1562827;74;1934;-68
2023/08/06 02:14:29;;;;;;;;;;;21.60;53.60;;;;;;1571991;74;1208;-69
2023/08/06 02:16:31;;;;;;;;;;;21.70;53.60;;;;;;1573724;74;744;-69
2023/08/06 02:18:32;;;;;;;;;;;21.60;53.60;;;;;;1572199;74;789;-69
2023/08/06 02:20:34;;;;;;;;;;;21.70;53.70;;;;;;1585602;74;743;-69
2023/08/06 02:22:36;;;;;;;;;;;21.60;53.40;;;;;;1575819;74;696;-69
2023/08/06 02:24:38;;;;;;;;;;;21.70;53.50;;;;;;1585599;74;1160;-69
2023/08/06 02:26:40;;;;;;;;;;;21.70;53.40;;;;;;1586788;74;651;-69
2023/08/06 02:28:42;;;;;;;;;;;21.70;53.40;;;;;;1569820;74;685;-69
2023/08/06 02:30:45;;;;;;;;;;;21.70;53.50;;;;;;1574717;74;732;-68
2023/08/06 02:32:47;;;;;;;;;;;21.60;53.40;;;;;;1564463;74;1937;-69
2023/08/06 02:34:49;;;;;;;;;;;21.60;53.30;;;;;;1564226;74;1152;-69
2023/08/06 02:36:51;;;;;;;;;;;21.70;53.40;;;;;;1567757;74;766;-69
2023/08/06 02:38:53;;;;;;;;;;;21.70;53.40;;;;;;1559304;74;962;-70
2023/08/06 02:40:55;;;;;;;;;;;21.70;53.30;;;;;;1559390;74;1580;-69
2023/08/06 02:42:56;;;;;;;;;;;21.60;53.30;;;;;;1571035;74;776;-70
2023/08/06 02:44:58;;;;;;;;;;;21.60;53.30;;;;;;1571689;74;1125;-68
2023/08/06 02:47:00;;;;;;;;;;;21.60;53.30;;;;;;1579625;74;750;-69
2023/08/06 02:49:02;;;;;;;;;;;21.60;53.30;;;;;;1560002;74;755;-69
2023/08/06 02:51:04;;;;;;;;;;;21.60;53.40;;;;;;1559665;74;1916;-68
2023/08/06 02:53:06;;;;;;;;;;;21.60;53.30;;;;;;1563667;74;926;-68
2023/08/06 02:55:08;;;;;;;;;;;21.60;53.20;;;;;;1563687;74;1146;-69
2023/08/06 02:57:10;;;;;;;;;;;21.60;53.10;;;;;;1566286;74;732;-67
2023/08/06 02:59:12;;;;;;;;;;;21.60;53.20;;;;;;1565272;74;716;-69
2023/08/06 03:01:14;;;;;;;;;;;21.60;53.20;;;;;;1568946;74;733;-69
2023/08/06 03:03:16;;;;;;;;;;;21.70;53.30;;;;;;1570912;74;712;-69
2023/08/06 03:05:18;;;;;;;;;;;21.60;53.20;;;;;;1579086;74;1122;-70
2023/08/06 03:07:20;;;;;;;;;;;21.60;53.20;;;;;;1573721;74;783;-69
2023/08/06 03:09:22;;;;;;;;;;;21.60;53.20;;;;;;1563228;74;908;-68
2023/08/06 03:11:23;;;;;;;;;;;21.60;53.20;;;;;;1571285;74;1926;-68
2023/08/06 03:13:25;;;;;;;;;;;21.60;53.10;;;;;;1573539;74;769;-69
2023/08/06 03:15:27;;;;;;;;;;;21.60;53.10;;;;;;1572364;74;1173;-69
2023/08/06 03:17:29;;;;;;;;;;;21.60;53.20;;;;;;1575785;74;789;-69
2023/08/06 03:19:31;;;;;;;;;;;21.60;53.10;;;;;;1560695;74;753;-68
2023/08/06 03:21:33;;;;;;;;;;;21.60;53.20;;;;;;1576669;74;776;-68
2023/08/06 03:23:35;;;;;;;;;;;21.60;53.10;;;;;;1577089;74;794;-68
2023/08/06 03:25:36;;;;;;;;;;;21.60;53.10;;;;;;1564174;74;1138;-68
2023/08/06 03:27:38;;;;;;;;;;;21.60;53.10;;;;;;1579920;74;715;-69
2023/08/06 03:29:40;;;;;;;;;;;21.60;53.00;;;;;;1563124;74;773;-69
2023/08/06 03:31:42;;;;;;;;;;;21.60;53.00;;;;;;1568831;74;1918;-68
2023/08/06 03:33:44;;;;;;;;;;;21.60;53.10;;;;;;1587068;73;763;-69
2023/08/06 03:35:46;;;;;;;;;;;21.60;52.90;;;;;;1552576;75;1547;-66
2023/08/06 03:37:49;;;;;;;;;;;21.60;53.00;;;;;;1563626;75;740;-69
2023/08/06 03:39:51;;;;;;;;;;;21.60;52.80;;;;;;1551042;75;794;-69
2023/08/06 03:41:53;;;;;;;;;;;21.60;52.80;;;;;;1566713;75;677;-69
2023/08/06 03:43:55;;;;;;;;;;;21.60;52.70;;;;;;1559244;75;804;-68
2023/08/06 03:45:57;;;;;;;;;;;21.60;52.60;;;;;;1543065;75;1148;-69
2023/08/06 03:47:58;;;;;;;;;;;21.50;52.60;;;;;;1576630;73;750;-69
2023/08/06 03:50:00;;;;;;;;;;;21.50;52.60;;;;;;1553125;75;734;-69
2023/08/06 03:52:02;;;;;;;;;;;21.60;52.70;;;;;;1591635;73;1933;-69
2023/08/06 03:54:04;;;;;;;;;;;21.60;52.70;;;;;;1556074;75;762;-69
2023/08/06 03:56:06;;;;;;;;;;;21.60;52.60;;;;;;1548689;75;1167;-69
2023/08/06 03:58:08;;;;;;;;;;;21.60;52.60;;;;;;1546259;75;732;-69
2023/08/06 04:00:10;;;;;;;;;;;21.60;52.50;;;;;;1546473;75;713;-69
2023/08/06 04:02:12;;;;;;;;;;;21.60;52.60;;;;;;1551685;75;717;-69
2023/08/06 04:04:14;;;;;;;;;;;21.60;52.60;;;;;;1555558;75;739;-69
2023/08/06 04:06:16;;;;;;;;;;;21.60;52.50;;;;;;1558631;75;1152;-69
2023/08/06 04:08:17;;;;;;;;;;;21.50;52.40;;;;;;1553153;75;723;-69
2023/08/06 04:10:19;;;;;;;;;;;21.50;52.30;;;;;;1547307;75;765;-68
2023/08/06 04:12:21;;;;;;;;;;;21.50;52.30;;;;;;1552497;75;1920;-67
2023/08/06 04:14:23;;;;;;;;;;;21.50;52.40;;;;;;1560452;75;784;-68
2023/08/06 04:16:26;;;;;;;;;;;21.50;52.40;;;;;;1552108;75;727;-69
2023/08/06 04:18:28;;;;;;;;;;;21.50;52.30;;;;;;1551655;75;838;-69
2023/08/06 04:20:30;;;;;;;;;;;21.50;52.30;;;;;;1554755;75;772;-68
2023/08/06 04:22:31;;;;;;;;;;;21.50;52.30;;;;;;1566455;75;741;-68
2023/08/06 04:24:33;;;;;;;;;;;21.50;52.30;;;;;;1563740;75;1145;-67
2023/08/06 04:26:35;;;;;;;;;;;21.50;52.30;;;;;;1558947;75;756;-68
2023/08/06 04:28:37;;;;;;;;;;;21.50;52.30;;;;;;1555052;75;816;-68
2023/08/06 04:30:39;;;;;;;;;;;21.40;52.20;;;;;;1554881;75;675;-68
2023/08/06 04:32:41;;;;;;;;;;;21.40;52.10;;;;;;1550504;75;1935;-69
2023/08/06 04:34:43;;;;;;;;;;;21.40;52.10;;;;;;1553286;75;1128;-68
2023/08/06 04:36:45;;;;;;;;;;;21.40;52.10;;;;;;1545133;75;807;-68
2023/08/06 04:38:47;;;;;;;;;;;21.40;52.10;;;;;;1555065;75;764;-68
2023/08/06 04:40:49;;;;;;;;;;;21.40;52.10;;;;;;1553534;75;738;-68
2023/08/06 04:42:51;;;;;;;;;;;21.40;52.10;;;;;;1553049;75;747;-68
2023/08/06 04:44:53;;;;;;;;;;;21.40;52.10;;;;;;1549328;75;1082;-68
2023/08/06 04:46:54;;;;;;;;;;;21.40;52.20;;;;;;1540982;76;957;-68
2023/08/06 04:48:56;;;;;;;;;;;21.40;52.30;;;;;;1538648;75;677;-68
2023/08/06 04:50:58;;;;;;;;;;;21.30;52.30;;;;;;1550781;75;728;-68
2023/08/06 04:53:00;;;;;;;;;;;21.30;52.40;;;;;;1559131;75;1927;-68
2023/08/06 04:55:02;;;;;;;;;;;21.40;52.40;;;;;;1549586;75;1117;-68
2023/08/06 04:57:04;;;;;;;;;;;21.40;52.50;;;;;;1547674;75;807;-66
2023/08/06 04:59:06;;;;;;;;;;;21.30;52.50;;;;;;1559360;75;715;-67
2023/08/06 05:01:08;;;;;;;;;;;21.40;52.50;;;;;;1552048;75;735;-68
2023/08/06 05:03:10;;;;;;;;;;;21.40;52.60;;;;;;1554951;75;762;-68
2023/08/06 05:05:12;;;;;;;;;;;21.30;52.60;;;;;;1541084;75;1128;-68
2023/08/06 05:07:14;;;;;;;;;;;21.40;52.60;;;;;;1558805;75;742;-68
2023/08/06 05:09:16;;;;;;;;;;;21.40;52.60;;;;;;1541443;75;688;-68
2023/08/06 05:11:17;;;;;;;;;;;21.40;52.70;;;;;;1546230;75;761;-68
2023/08/06 05:13:39;;;;;;;;;;;21.40;52.60;;;;;;1555647;75;1943;-66
2023/08/06 05:15:42;;;;;;;;;;;21.40;52.70;;;;;;1500556;78;711;-56
2023/08/06 05:17:44;;;;;;;;;;;21.40;52.60;;;;;;1510659;78;1057;-55
2023/08/06 05:19:46;;;;;;;;;;;21.40;52.60;;;;;;1514151;77;1175;-56
2023/08/06 05:21:48;;;;;;;;;;;21.40;52.60;;;;;;1503814;77;758;-56
2023/08/06 05:23:49;;;;;;;;;;;21.40;52.60;;;;;;1499215;78;752;-56
2023/08/06 05:25:51;;;;;;;;;;;21.40;52.70;;;;;;1510602;78;820;-56
2023/08/06 05:27:53;;;;;;;;;;;21.40;52.80;;;;;;1507166;78;673;-54
2023/08/06 05:29:56;;;;;;;;;;;21.40;52.80;;;;;;1497602;77;1605;-55
2023/08/06 05:31:58;;;;;;;;;;;21.50;52.80;;;;;;1505262;78;725;-56
2023/08/06 05:34:00;;;;;;;;;;;21.60;52.60;;;;;;1505266;77;910;-56
2023/08/06 05:36:02;;;;;;;;;;;21.70;52.40;;;;;;1503704;78;755;-56
2023/08/06 05:38:04;;;;;;;;;;;21.80;52.30;;;;;;1509515;78;727;-55
2023/08/06 05:40:06;;;;;;;;;;;21.80;52.20;;;;;;1509936;77;1134;-55
2023/08/06 05:42:08;;;;;;;;;;;21.80;52.10;;;;;;1513341;78;715;-55
2023/08/06 05:44:10;;;;;;;;;;;21.70;52.20;;;;;;1503183;78;833;-56
2023/08/06 05:46:12;;;;;;;;;;;21.70;52.30;;;;;;1495384;78;752;-55
2023/08/06 05:48:14;;;;;;;;;;;21.70;52.20;;;;;;1508741;77;806;-55
2023/08/06 05:50:15;;;;;;;;;;;21.80;52.10;;;;;;1501490;77;642;-54
2023/08/06 05:52:17;;;;;;;;;;;21.80;51.90;;;;;;1510596;77;1940;-55
2023/08/06 05:54:19;;;;;;;;;;;21.90;51.90;;;;;;1506183;78;694;-56
2023/08/06 05:56:21;;;;;;;;;;;21.90;51.60;;;;;;1502975;78;813;-56
2023/08/06 05:58:26;;;;;;;;;;;21.90;51.60;;;;;;1499014;78;1140;-56
2023/08/06 06:00:27;;;;;;;;;;;21.90;51.50;;;;;;1499431;77;1682;-55
2023/08/06 06:02:29;;;;;;;;;;;22.00;51.40;;;;;;1495792;77;751;-55
2023/08/06 06:04:30;;;;;;;;;;;22.00;51.30;;;;;;1491148;77;726;-56
2023/08/06 06:06:32;;;;;;;;;;;22.20;51.20;;;;;;1508085;78;742;-56
2023/08/06 06:08:34;;;;;;;;;;;22.20;51.00;;;;;;1510431;77;1231;-57
2023/08/06 06:10:36;;;;;;;;;;;22.20;50.70;;;;;;1505081;78;718;-55
2023/08/06 06:12:40;;;;;;;;;;;22.30;50.70;;;;;;1516286;78;1941;-56
2023/08/06 06:14:41;;;;;;;;;;;22.30;50.70;;;;;;1510645;78;1387;-56
2023/08/06 06:16:43;;;;;;;;;;;22.40;50.40;;;;;;1510002;77;702;-56
2023/08/06 06:18:45;;;;;;;;;;;22.30;49.70;;;;;;1497946;77;1162;-55
2023/08/06 06:20:47;;;;;;;;;;;22.40;50.00;;;;;;1490146;77;861;-56
2023/08/06 06:22:49;;;;;;;;;;;22.20;50.20;;;;;;1508038;78;757;-56
2023/08/06 06:24:51;;;;;;;;;;;22.20;50.00;;;;;;1502493;78;1519;-56
2023/08/06 06:26:53;;;;;;;;;;;22.30;50.00;;;;;;1507287;78;749;-56
2023/08/06 06:28:54;;;;;;;;;;;22.20;49.80;;;;;;1508690;77;1149;-56
2023/08/06 06:30:58;;;;;;;;;;;22.20;49.10;;;;;;1492036;77;663;-56
2023/08/06 06:33:00;;;;;;;;;;;22.30;49.40;;;;;;1515777;77;1928;-55
2023/08/06 06:35:02;;;;;;;;;;;22.30;49.20;;;;;;1505136;78;736;-56
2023/08/06 06:37:04;;;;;;;;;;;22.40;48.90;;;;;;1510823;77;828;-55
2023/08/06 06:39:06;;;;;;;;;;;22.40;48.90;;;;;;1498639;77;1169;-56
2023/08/06 06:41:08;;;;;;;;;;;22.40;48.80;;;;;;1492183;78;768;-56
2023/08/06 06:43:09;;;;;;;;;;;22.30;49.10;;;;;;1516268;78;757;-55
2023/08/06 06:45:11;;;;;;;;;;;22.20;48.80;;;;;;1508106;78;705;-56
2023/08/06 06:47:13;;;;;;;;;;;22.10;49.30;;;;;;1511125;77;770;-55
2023/08/06 06:49:15;;;;;;;;;;;22.10;49.40;;;;;;1509127;77;1113;-56
2023/08/06 06:51:17;;;;;;;;;;;22.00;49.40;;;;;;1491127;77;725;-55
2023/08/06 06:53:19;;;;;;;;;;;22.00;49.50;;;;;;1500979;78;1934;-56
2023/08/06 06:55:21;;;;;;;;;;;22.00;49.40;;;;;;1512034;78;780;-56
2023/08/06 06:57:23;;;;;;;;;;;22.00;49.30;;;;;;1502401;78;918;-56
2023/08/06 06:59:25;;;;;;;;;;;21.90;49.60;;;;;;1491188;78;1157;-56
2023/08/06 07:01:26;;;;;;;;;;;21.90;49.70;;;;;;1506047;77;768;-56
2023/08/06 07:03:28;;;;;;;;;;;21.90;49.80;;;;;;1505119;78;683;-56
2023/08/06 07:05:30;;;;;;;;;;;21.90;50.00;;;;;;1493531;78;782;-56
2023/08/06 07:07:32;;;;;;;;;;;21.90;50.10;;;;;;1495757;78;784;-57
2023/08/06 07:09:34;;;;;;;;;;;21.90;50.20;;;;;;1495929;77;1111;-55
2023/08/06 07:11:36;;;;;;;;;;;21.90;50.30;;;;;;1506688;78;904;-56
2023/08/06 07:13:38;;;;;;;;;;;21.90;50.30;;;;;;1501238;78;1945;-56
2023/08/06 07:15:40;;;;;;;;;;;21.90;50.50;;;;;;1499744;77;789;-55
2023/08/06 07:17:41;;;;;;;;;;;21.80;50.40;;;;;;1491009;78;750;-56
2023/08/06 07:19:43;;;;;;;;;;;21.80;50.50;;;;;;1506062;78;1212;-55
2023/08/06 07:21:45;;;;;;;;;;;21.80;50.60;;;;;;1508633;77;1535;-55
2023/08/06 07:23:49;;;;;;;;;;;21.80;50.40;;;;;;1503098;78;815;-56
2023/08/06 07:25:51;;;;;;;;;;;21.80;50.60;;;;;;1511449;78;748;-56
2023/08/06 07:27:53;;;;;;;;;;;21.80;50.70;;;;;;1492952;78;732;-56
2023/08/06 07:29:55;;;;;;;;;;;21.80;50.70;;;;;;1500484;77;1157;-55
2023/08/06 07:31:57;;;;;;;;;;;21.80;50.70;;;;;;1496491;78;792;-55
2023/08/06 07:33:59;;;;;;;;;;;21.80;50.80;;;;;;1495622;78;1916;-55
2023/08/06 07:36:02;;;;;;;;;;;21.80;50.80;;;;;;1503833;78;747;-56
2023/08/06 07:38:04;;;;;;;;;;;21.80;50.90;;;;;;1494108;78;1638;-57
2023/08/06 07:40:06;;;;;;;;;;;21.80;50.70;;;;;;1496960;77;1099;-55
2023/08/06 07:42:08;;;;;;;;;;;21.70;50.70;;;;;;1493325;78;740;-56
2023/08/06 07:44:10;;;;;;;;;;;21.80;50.70;;;;;;1499446;78;808;-56
2023/08/06 07:46:13;;;;;;;;;;;21.80;50.70;;;;;;1495621;77;798;-56
2023/08/06 07:48:15;;;;;;;;;;;21.80;50.70;;;;;;1484588;77;972;-55
2023/08/06 07:50:17;;;;;;;;;;;21.80;50.70;;;;;;1504851;77;806;-55
2023/08/06 07:52:19;;;;;;;;;;;21.80;50.70;;;;;;1506816;77;720;-56
2023/08/06 07:54:20;;;;;;;;;;;21.80;50.20;;;;;;1500744;78;1937;-55
2023/08/06 07:56:22;;;;;;;;;;;21.80;50.50;;;;;;1501681;78;778;-56
2023/08/06 07:58:25;;;;;;;;;;;21.80;50.60;;;;;;1516522;77;1166;-56
2023/08/06 08:00:27;;;;;;;;;;;21.80;50.50;;;;;;1515738;77;718;-56
2023/08/06 08:02:30;;;;;;;;;;;21.80;50.60;;;;;;1511068;77;728;-56
2023/08/06 08:04:32;;;;;;;;;;;21.80;50.50;;;;;;1511973;77;673;-55
2023/08/06 08:06:34;;;;;;;;;;;21.70;50.10;;;;;;1509203;78;749;-55
2023/08/06 08:08:38;;;;;;;;;;;21.70;50.00;;;;;;1502098;78;1162;-55
2023/08/06 08:10:39;;;;;;;;;;;21.80;50.10;;;;;;1499068;77;1622;-56
2023/08/06 08:12:42;;;;;;;;;;;21.80;50.00;;;;;;1507507;78;752;-55
2023/08/06 08:14:45;;;;;;;;;;;21.80;49.60;;;;;;1508575;77;1913;-56
2023/08/06 08:16:47;;;;;;;;;;;21.80;49.60;;;;;;1511961;78;1066;-57
2023/08/06 08:18:49;;;;;;;;;;;21.80;49.10;;;;;;1512117;77;1546;-57
2023/08/06 08:20:51;;;;;;;;;;;21.70;49.50;;;;;;1508317;77;724;-57
2023/08/06 08:22:52;;;;;;;;;;;21.80;49.50;;;;;;1513042;78;721;-56
2023/08/06 08:24:55;;;;;;;;;;;21.70;49.50;;;;;;1513516;78;702;-57
2023/08/06 08:26:57;;;;;;;;;;;21.70;48.90;;;;;;1503881;78;838;-56
2023/08/06 08:28:58;;;;;;;;;;;21.70;48.20;;;;;;1505767;77;1169;-57
2023/08/06 08:31:00;;;;;;;;;;;21.60;47.90;;;;;;1490823;77;746;-55
2023/08/06 08:33:02;;;;;;;;;;;21.70;48.10;;;;;;1492979;78;708;-57
2023/08/06 08:35:04;;;;;;;;;;;21.70;48.20;;;;;;1492108;78;1943;-57
2023/08/06 08:37:06;;;;;;;;;;;21.60;48.60;;;;;;1493491;78;778;-57
2023/08/06 08:39:08;;;;;;;;;;;21.60;48.40;;;;;;1504262;77;1134;-56
2023/08/06 08:41:11;;;;;;;;;;;21.60;48.70;;;;;;1503709;78;719;-56
2023/08/06 08:43:13;;;;;;;;;;;21.60;48.50;;;;;;1502520;78;1058;-57
2023/08/06 08:45:15;;;;;;;;;;;21.60;48.40;;;;;;1514285;78;726;-56
2023/08/06 08:47:17;;;;;;;;;;;21.60;48.60;;;;;;1516487;78;785;-56
2023/08/06 08:49:19;;;;;;;;;;;21.60;48.90;;;;;;1500868;77;1098;-57
2023/08/06 08:51:20;;;;;;;;;;;21.50;48.90;;;;;;1501105;77;691;-56
2023/08/06 08:53:22;;;;;;;;;;;21.50;49.10;;;;;;1506269;78;1944;-57
2023/08/06 08:55:24;;;;;;;;;;;21.50;49.20;;;;;;1514896;78;1085;-56
2023/08/06 08:57:26;;;;;;;;;;;21.50;48.50;;;;;;1500371;77;775;-57
2023/08/06 08:59:28;;;;;;;;;;;21.50;49.10;;;;;;1513527;77;1151;-57
2023/08/06 09:01:30;;;;;;;;;;;21.60;48.90;;;;;;1505151;77;758;-57
2023/08/06 09:03:33;;;;;;;;;;;21.60;48.60;;;;;;1508384;78;728;-57
2023/08/06 09:05:35;;;;;;;;;;;21.50;48.90;;;;;;1502020;78;731;-56
2023/08/06 09:07:39;;;;;;;;;;;21.60;48.40;;;;;;1498745;78;753;-56
2023/08/06 09:09:41;;;;;;;;;;;21.50;48.10;;;;;;1508356;77;1768;-55
2023/08/06 09:11:44;;;;;;;;;;;21.50;48.40;;;;;;1513979;78;868;-55
2023/08/06 09:13:46;;;;;;;;;;;21.50;48.60;;;;;;1493135;77;1944;-56
2023/08/06 09:15:49;;;;;;;;;;;21.50;48.70;;;;;;1490984;78;780;-57
2023/08/06 09:17:53;;;;;;;;;;;21.50;48.50;;;;;;1497354;77;846;-56
2023/08/06 09:19:55;;;;;;;;;;;21.50;48.30;;;;;;1499505;78;1799;-56
2023/08/06 09:21:57;;;;;;;;;;;21.50;48.20;;;;;;1495240;77;781;-56
2023/08/06 09:23:59;;;;;;;;;;;21.50;48.10;;;;;;1498712;78;793;-55
2023/08/06 09:26:02;;;;;;;;;;;21.50;47.50;;;;;;1486790;78;775;-56
2023/08/06 09:28:03;;;;;;;;;;;21.40;47.90;;;;;;1507141;77;659;-57
2023/08/06 09:30:06;;;;;;;;;;;21.50;47.60;;;;;;1495988;77;1145;-56
2023/08/06 09:32:08;;;;;;;;;;;21.40;47.40;;;;;;1494414;77;749;-56
2023/08/06 09:34:17;;;;;;;;;;;21.50;47.50;;;;;;1504979;78;1941;-57
2023/08/06 09:36:18;;;;;;;;;;;21.40;47.90;;;;;;1501810;78;785;-56
2023/08/06 09:38:20;;;;;;;;;;;21.40;48.00;;;;;;1512165;78;1112;-55
2023/08/06 09:40:26;;;;;;;;;;;21.50;47.90;;;;;;1504195;77;723;-56
2023/08/06 09:42:28;;;;;;;;;;;21.50;47.60;;;;;;1501195;77;772;-56
2023/08/06 09:44:31;;;;;;;;;;;21.40;47.60;;;;;;1494653;79;751;-57
2023/08/06 09:46:33;;;;;;;;;;;21.40;47.70;;;;;;1507016;78;615;-56
2023/08/06 09:48:35;;;;;;;;;;;21.40;47.60;;;;;;1510767;76;1145;-56
2023/08/06 09:50:37;;;;;;;;;;;21.40;47.90;;;;;;1497366;78;844;-56
2023/08/06 09:52:39;;;;;;;;;;;21.40;47.40;;;;;;1511535;77;711;-56
2023/08/06 09:54:41;;;;;;;;;;;21.50;47.60;;;;;;1496372;78;1942;-55
2023/08/06 09:56:42;;;;;;;;;;;21.40;47.70;;;;;;1506107;77;730;-57
2023/08/06 09:58:44;;;;;;;;;;;21.50;47.70;;;;;;1495955;78;1086;-57
2023/08/06 10:00:46;;;;;;;;;;;21.50;48.10;;;;;;1503311;77;740;-56
2023/08/06 10:02:49;;;;;;;;;;;21.50;47.90;;;;;;1506335;77;723;-57
2023/08/06 10:04:51;;;;;;;;;;;21.40;48.00;;;;;;1508999;77;759;-57
2023/08/06 10:06:53;;;;;;;;;;;21.50;48.10;;;;;;1498837;78;690;-56
2023/08/06 10:08:55;;;;;;;;;;;21.50;48.00;;;;;;1492628;78;1155;-55
2023/08/06 10:10:57;;;;;;;;;;;21.50;47.80;;;;;;1512586;77;1473;-55
2023/08/06 10:12:59;;;;;;;;;;;21.40;47.90;;;;;;1510020;78;678;-56
2023/08/06 10:15:02;;;;;;;;;;;21.40;47.90;;;;;;1496539;78;1935;-56
2023/08/06 10:17:04;;;;;;;;;;;21.40;47.90;;;;;;1494467;78;808;-56
2023/08/06 10:19:06;;;;;;;;;;;21.40;48.20;;;;;;1495049;77;1157;-55
2023/08/06 10:21:10;;;;;;;;;;;21.40;48.40;;;;;;1502261;77;728;-57
2023/08/06 10:23:13;;;;;;;;;;;21.40;47.80;;;;;;1511913;78;766;-55
2023/08/06 10:25:18;;;;;;;;;;;21.50;48.30;;;;;;1497080;77;825;-56
2023/08/06 10:27:32;;;;;;;;;;;21.50;48.10;;;;;;1495189;78;810;-57
2023/08/06 10:29:37;;;;;;;;;;;21.50;48.00;;;;;;1504664;77;1151;-56
2023/08/06 10:31:55;;;;;;;;;;;21.40;48.10;;;;;;1508936;78;762;-56
2023/08/06 10:33:57;;;;;;;;;;;21.50;48.10;;;;;;1495512;78;1923;-57
2023/08/06 10:36:00;;;;;;;;;;;21.40;48.20;;;;;;1499232;78;737;-57
2023/08/06 10:38:10;;;;;;;;;;;21.40;48.00;;;;;;1496504;77;726;-56
2023/08/06 10:40:12;;;;;;;;;;;21.50;48.40;;;;;;1497529;77;1134;-56
2023/08/06 10:42:15;;;;;;;;;;;21.50;48.10;;;;;;1488532;78;739;-56
2023/08/06 10:44:17;;;;;;;;;;;21.40;47.50;;;;;;1501794;78;1807;-55
2023/08/06 10:46:23;;;;;;;;;;;21.40;47.60;;;;;;1500572;77;644;-57
2023/08/06 10:48:42;;;;;;;;;;;21.40;47.80;;;;;;1500147;77;1708;-57
2023/08/06 10:50:43;;;;;;;;;;;21.50;47.70;;;;;;1497197;77;1879;-56
2023/08/06 10:52:46;;;;;;;;;;;21.50;48.00;;;;;;1494301;77;755;-55
2023/08/06 10:54:48;;;;;;;;;;;21.50;48.20;;;;;;1498309;78;1927;-56
2023/08/06 10:56:50;;;;;;;;;;;21.40;48.30;;;;;;1504450;77;791;-56
2023/08/06 10:58:54;;;;;;;;;;;21.50;48.40;;;;;;1493885;78;1162;-56
2023/08/06 11:00:56;;;;;;;;;;;21.40;48.40;;;;;;1505936;77;728;-55
2023/08/06 11:02:58;;;;;;;;;;;21.40;48.40;;;;;;1506453;78;771;-55
2023/08/06 11:05:02;;;;;;;;;;;21.40;48.50;;;;;;1508808;78;780;-55
2023/08/06 11:07:03;;;;;;;;;;;21.40;48.40;;;;;;1506246;78;1839;-56
2023/08/06 11:09:05;;;;;;;;;;;21.40;48.60;;;;;;1507145;77;1129;-56
2023/08/06 11:11:14;;;;;;;;;;;21.40;48.70;;;;;;1499982;77;717;-56
2023/08/06 11:13:18;;;;;;;;;;;21.30;48.90;;;;;;1507930;78;770;-55
2023/08/06 11:15:20;;;;;;;;;;;21.30;48.60;;;;;;1501618;78;1923;-55
2023/08/06 11:17:22;;;;;;;;;;;21.30;48.60;;;;;;1499849;77;827;-56
2023/08/06 11:19:24;;;;;;;;;;;21.30;48.90;;;;;;1507603;78;1101;-56
2023/08/06 11:21:26;;;;;;;;;;;21.30;48.90;;;;;;1502208;77;806;-56
2023/08/06 11:23:28;;;;;;;;;;;21.30;49.10;;;;;;1498550;78;785;-56
2023/08/06 11:25:30;;;;;;;;;;;21.20;49.10;;;;;;1498297;77;740;-57
2023/08/06 11:27:32;;;;;;;;;;;21.30;48.90;;;;;;1509106;78;718;-56
2023/08/06 11:29:36;;;;;;;;;;;21.30;49.20;;;;;;1509835;77;1126;-55
2023/08/06 11:31:37;;;;;;;;;;;21.30;49.40;;;;;;1494683;78;1781;-56
2023/08/06 11:33:39;;;;;;;;;;;21.30;49.50;;;;;;1486674;78;712;-54
2023/08/06 11:35:41;;;;;;;;;;;21.30;49.60;;;;;;1497001;78;1946;-54
2023/08/06 11:37:46;;;;;;;;;;;21.30;49.60;;;;;;1502265;77;688;-55
2023/08/06 11:39:48;;;;;;;;;;;21.30;49.40;;;;;;1501363;77;1140;-55
2023/08/06 11:41:51;;;;;;;;;;;21.30;49.50;;;;;;1508455;78;728;-55
2023/08/06 11:43:53;;;;;;;;;;;21.30;49.50;;;;;;1497606;78;782;-56
2023/08/06 11:45:56;;;;;;;;;;;21.30;49.60;;;;;;1519502;77;738;-56
2023/08/06 11:47:58;;;;;;;;;;;21.30;49.40;;;;;;1500094;78;752;-56
2023/08/06 11:50:00;;;;;;;;;;;21.40;49.70;;;;;;1504792;77;1078;-55
2023/08/06 11:52:03;;;;;;;;;;;21.40;49.70;;;;;;1499570;77;713;-56
2023/08/06 11:54:07;;;;;;;;;;;21.40;49.50;;;;;;1543856;76;1569;-56
2023/08/06 11:56:09;;;;;;;;;;;21.40;49.60;;;;;;1515734;77;1898;-57
2023/08/06 11:58:11;;;;;;;;;;;21.40;49.70;;;;;;1515205;77;782;-55
2023/08/06 12:00:14;;;;;;;;;;;21.40;49.70;;;;;;1516177;77;1182;-55
2023/08/06 12:02:15;;;;;;;;;;;21.40;49.60;;;;;;1498336;77;1326;-55
2023/08/06 12:04:17;;;;;;;;;;;21.30;49.70;;;;;;1516705;78;788;-55
2023/08/06 12:06:19;;;;;;;;;;;21.40;49.20;;;;;;1523424;76;696;-56
2023/08/06 12:08:21;;;;;;;;;;;21.40;49.10;;;;;;1496270;78;1175;-56
2023/08/06 12:10:24;;;;;;;;;;;21.40;49.10;;;;;;1504246;77;694;-55